createdAt,value
2023-03-31T00:00:54.181Z,16.80
2023-03-31T00:03:24.086Z,15.57
2023-03-31T00:05:58.143Z,16.08
2023-03-31T00:08:30.348Z,9.50
2023-03-31T00:13:27.304Z,14.43
2023-03-31T00:15:58.194Z,14.30
2023-03-31T00:18:26.855Z,18.00
2023-03-31T00:20:57.919Z,12.23
2023-03-31T00:23:28.944Z,13.30
2023-03-31T00:25:56.762Z,14.55
2023-03-31T00:28:24.486Z,10.55
2023-03-31T00:30:52.899Z,13.35
2023-03-31T00:33:21.233Z,13.80
2023-03-31T00:35:52.774Z,24.83
2023-03-31T00:38:21.934Z,15.87
2023-03-31T00:40:53.425Z,16.25
2023-03-31T00:43:33.368Z,14.27
2023-03-31T00:46:13.685Z,12.25
2023-03-31T00:48:46.934Z,20.15
2023-03-31T00:51:15.009Z,15.13
2023-03-31T00:53:43.328Z,13.05
2023-03-31T00:56:15.735Z,17.38
2023-03-31T01:01:17.146Z,17.52
2023-03-31T01:06:16.815Z,16.17
2023-03-31T01:08:45.432Z,12.98
2023-03-31T01:11:19.833Z,14.57
2023-03-31T01:13:50.804Z,16.67
2023-03-31T01:16:18.765Z,14.05
2023-03-31T01:18:49.596Z,14.43
2023-03-31T01:21:47.219Z,7.95
2023-03-31T01:24:51.847Z,9.32
2023-03-31T01:27:58.659Z,10.65
2023-03-31T01:31:24.447Z,11.57
2023-03-31T01:34:11.363Z,14.98
2023-03-31T01:37:18.319Z,17.38
2023-03-31T01:40:12.121Z,15.35
2023-03-31T01:42:46.209Z,14.93
2023-03-31T01:45:25.201Z,14.25
2023-03-31T01:47:59.176Z,12.18
2023-03-31T01:50:32.318Z,19.08
2023-03-31T01:53:06.959Z,14.30
2023-03-31T01:55:39.207Z,14.68
2023-03-31T01:58:13.265Z,13.52
2023-03-31T02:00:46.741Z,13.13
2023-03-31T02:03:19.299Z,12.60
2023-03-31T02:05:52.552Z,13.38
2023-03-31T02:08:24.409Z,15.25
2023-03-31T02:10:55.101Z,20.48
2023-03-31T02:13:26.673Z,18.45
2023-03-31T02:15:58.668Z,11.67
2023-03-31T02:18:30.692Z,12.18
2023-03-31T02:20:59.945Z,12.27
2023-03-31T02:23:31.670Z,13.85
2023-03-31T02:26:04.863Z,13.88
2023-03-31T02:28:33.047Z,17.90
2023-03-31T02:31:11.051Z,13.07
2023-03-31T02:33:38.967Z,18.83
2023-03-31T02:36:08.078Z,22.67
2023-03-31T02:38:41.207Z,21.40
2023-03-31T02:41:10.742Z,23.05
2023-03-31T02:43:38.700Z,19.65
2023-03-31T02:46:06.805Z,22.73
2023-03-31T02:48:38.817Z,28.23
2023-03-31T02:51:36.622Z,29.15
2023-03-31T02:54:23.356Z,26.00
2023-03-31T02:57:13.289Z,23.73
2023-03-31T02:59:54.173Z,22.60
2023-03-31T03:02:34.098Z,21.60
2023-03-31T03:05:18.779Z,23.70
2023-03-31T03:07:49.639Z,21.80
2023-03-31T03:10:27.909Z,17.08
2023-03-31T03:13:02.002Z,19.65
2023-03-31T03:15:35.090Z,19.42
2023-03-31T03:18:03.803Z,19.55
2023-03-31T03:20:33.959Z,20.45
2023-03-31T03:23:01.633Z,17.85
2023-03-31T03:25:30.286Z,16.38
2023-03-31T03:27:59.350Z,16.10
2023-03-31T03:30:27.062Z,16.17
2023-03-31T03:32:56.077Z,19.52
2023-03-31T03:35:23.850Z,17.10
2023-03-31T03:37:51.508Z,14.15
2023-03-31T03:40:19.421Z,16.15
2023-03-31T03:42:47.083Z,16.67
2023-03-31T03:45:16.110Z,21.17
2023-03-31T03:47:43.970Z,18.65
2023-03-31T03:50:16.009Z,16.52
2023-03-31T03:55:12.277Z,13.63
2023-03-31T03:57:39.991Z,17.30
2023-03-31T04:00:10.224Z,18.70
2023-03-31T04:02:39.723Z,14.65
2023-03-31T04:05:07.952Z,16.95
2023-03-31T04:07:35.816Z,20.25
2023-03-31T04:10:03.500Z,22.50
2023-03-31T04:12:31.125Z,16.08
2023-03-31T04:14:58.740Z,18.50
2023-03-31T04:17:32.661Z,17.73
2023-03-31T04:20:04.620Z,17.30
2023-03-31T04:22:35.616Z,17.00
2023-03-31T04:25:04.294Z,18.58
2023-03-31T04:27:33.799Z,14.25
2023-03-31T04:30:01.471Z,18.98
2023-03-31T04:32:32.888Z,13.25
2023-03-31T04:35:04.996Z,14.43
2023-03-31T04:37:34.885Z,12.27
2023-03-31T04:40:09.307Z,15.45
2023-03-31T04:42:37.427Z,15.65
2023-03-31T04:45:05.897Z,14.15
2023-03-31T04:47:33.572Z,14.70
2023-03-31T04:50:02.717Z,13.38
2023-03-31T04:52:30.449Z,14.07
2023-03-31T04:54:58.150Z,15.25
2023-03-31T04:57:25.995Z,8.18
2023-03-31T04:59:53.707Z,11.50
2023-03-31T05:02:25.292Z,13.65
2023-03-31T05:04:53.690Z,14.57
2023-03-31T05:07:22.812Z,11.05
2023-03-31T05:09:50.464Z,9.73
2023-03-31T05:12:18.134Z,9.45
2023-03-31T05:14:45.899Z,15.57
2023-03-31T05:17:13.528Z,10.70
2023-03-31T05:19:41.193Z,10.43
2023-03-31T05:22:08.820Z,11.70
2023-03-31T05:24:38.067Z,8.07
2023-03-31T05:27:06.607Z,9.57
2023-03-31T05:29:34.315Z,8.82
2023-03-31T05:32:02.129Z,10.88
2023-03-31T05:34:30.149Z,9.80
2023-03-31T05:36:58.516Z,7.22
2023-03-31T05:42:22.785Z,9.27
2023-03-31T05:44:50.571Z,6.47
2023-03-31T05:47:18.358Z,7.57
2023-03-31T05:49:46.227Z,7.78
2023-03-31T05:52:14.102Z,7.72
2023-03-31T05:54:42.798Z,8.00
2023-03-31T05:57:10.950Z,6.95
2023-03-31T05:59:42.152Z,4.40
2023-03-31T06:02:13.637Z,10.18
2023-03-31T06:04:42.274Z,8.43
2023-03-31T06:07:10.185Z,9.68
2023-03-31T06:09:37.955Z,8.00
2023-03-31T06:12:06.556Z,8.20
2023-03-31T06:14:34.234Z,10.10
2023-03-31T06:17:03.348Z,9.23
2023-03-31T06:19:31.440Z,11.70
2023-03-31T06:21:59.815Z,11.73
2023-03-31T06:24:27.618Z,15.23
2023-03-31T06:26:55.572Z,13.00
2023-03-31T06:29:23.344Z,14.25
2023-03-31T06:31:51.116Z,18.45
2023-03-31T06:34:21.465Z,13.10
2023-03-31T06:36:49.483Z,10.55
2023-03-31T06:39:17.297Z,7.78
2023-03-31T06:41:44.989Z,9.38
2023-03-31T06:44:12.692Z,12.48
2023-03-31T06:46:40.498Z,19.80
2023-03-31T06:49:08.302Z,11.23
2023-03-31T06:51:37.541Z,17.45
2023-03-31T06:54:05.265Z,14.57
2023-03-31T06:56:33.203Z,13.05
2023-03-31T06:59:00.929Z,16.33
2023-03-31T07:01:28.675Z,17.70
2023-03-31T07:03:56.713Z,14.02
2023-03-31T07:06:24.604Z,11.90
2023-03-31T07:08:53.828Z,14.02
2023-03-31T07:11:21.486Z,13.23
2023-03-31T07:13:49.189Z,18.77
2023-03-31T07:16:17.017Z,14.70
2023-03-31T07:18:45.329Z,18.40
2023-03-31T07:21:13.200Z,15.35
2023-03-31T07:23:41.182Z,16.48
2023-03-31T07:26:11.397Z,16.98
2023-03-31T07:28:39.231Z,18.10
2023-03-31T07:31:12.745Z,18.38
2023-03-31T07:33:40.896Z,13.25
2023-03-31T07:36:13.343Z,10.68
2023-03-31T07:38:42.340Z,13.90
2023-03-31T07:41:14.197Z,12.85
2023-03-31T07:43:42.224Z,17.25
2023-03-31T07:46:16.386Z,20.77
2023-03-31T07:48:44.312Z,13.88
2023-03-31T07:51:12.044Z,9.48
2023-03-31T07:53:39.755Z,13.10
2023-03-31T07:56:08.059Z,13.63
2023-03-31T07:58:37.584Z,15.00
2023-03-31T08:01:06.223Z,10.88
2023-03-31T08:03:34.486Z,12.05
2023-03-31T08:06:02.625Z,14.05
2023-03-31T08:08:30.359Z,11.95
2023-03-31T08:10:58.107Z,20.50
2023-03-31T08:13:26.013Z,12.45
2023-03-31T08:15:55.104Z,13.27
2023-03-31T08:18:22.946Z,10.43
2023-03-31T08:20:50.882Z,11.73
2023-03-31T08:23:18.723Z,11.45
2023-03-31T08:25:47.283Z,16.52
2023-03-31T08:28:15.083Z,14.90
2023-03-31T08:30:42.976Z,19.67
2023-03-31T08:33:13.199Z,18.85
2023-03-31T08:35:41.065Z,16.55
2023-03-31T08:38:08.825Z,18.67
2023-03-31T08:40:37.020Z,16.77
2023-03-31T08:43:09.267Z,15.48
2023-03-31T08:45:40.954Z,17.55
2023-03-31T08:48:19.227Z,15.25
2023-03-31T08:50:52.942Z,19.25
2023-03-31T08:53:26.171Z,19.15
2023-03-31T08:55:55.603Z,22.98
2023-03-31T08:58:35.211Z,16.63
2023-03-31T09:01:10.375Z,14.73
2023-03-31T09:03:53.168Z,16.70
2023-03-31T09:06:27.620Z,14.07
2023-03-31T09:09:00.639Z,16.40
2023-03-31T09:11:36.484Z,17.88
2023-03-31T09:14:27.459Z,18.10
2023-03-31T09:17:06.889Z,15.88
2023-03-31T09:19:39.895Z,15.30
2023-03-31T09:22:14.039Z,14.57
2023-03-31T09:24:50.942Z,16.52
2023-03-31T09:27:20.238Z,18.55
2023-03-31T09:29:52.940Z,20.75
2023-03-31T09:32:22.524Z,19.27
2023-03-31T09:34:54.682Z,17.17
2023-03-31T09:37:22.530Z,23.15
2023-03-31T09:39:50.611Z,23.10
2023-03-31T09:42:19.539Z,20.83
2023-03-31T09:44:50.013Z,17.75
2023-03-31T09:47:27.105Z,15.35
2023-03-31T09:49:56.228Z,15.75
2023-03-31T09:52:30.543Z,17.38
2023-03-31T09:55:01.491Z,16.00
2023-03-31T09:57:33.533Z,15.20
2023-03-31T10:00:14.697Z,12.85
2023-03-31T10:02:45.809Z,14.68
2023-03-31T10:05:27.381Z,13.10
2023-03-31T10:08:18.987Z,12.00
2023-03-31T10:10:49.428Z,11.13
2023-03-31T10:13:20.266Z,12.32
2023-03-31T10:15:47.970Z,12.10
2023-03-31T10:18:18.193Z,10.57
2023-03-31T10:20:51.987Z,7.03
2023-03-31T10:23:26.273Z,11.02
2023-03-31T10:25:54.646Z,9.82
2023-03-31T10:28:23.661Z,10.55
2023-03-31T10:30:53.476Z,12.52
2023-03-31T10:33:25.013Z,10.60
2023-03-31T10:35:58.930Z,14.77
2023-03-31T10:38:31.801Z,15.25
2023-03-31T10:41:00.895Z,11.10
2023-03-31T10:43:30.616Z,12.65
2023-03-31T10:46:01.352Z,12.95
2023-03-31T10:48:30.692Z,13.02
2023-03-31T10:51:05.740Z,12.85
2023-03-31T10:53:42.242Z,12.32
2023-03-31T10:56:22.637Z,11.52
2023-03-31T10:59:06.584Z,12.65
2023-03-31T11:01:48.271Z,16.38
2023-03-31T11:04:47.746Z,18.98
2023-03-31T11:07:29.500Z,12.52
2023-03-31T11:10:10.299Z,15.15
2023-03-31T11:12:44.976Z,10.98
2023-03-31T11:15:22.936Z,16.95
2023-03-31T11:18:03.355Z,10.23
2023-03-31T11:20:41.752Z,11.68
2023-03-31T11:23:21.125Z,9.60
2023-03-31T11:25:54.374Z,6.88
2023-03-31T11:28:40.705Z,9.68
2023-03-31T11:31:22.052Z,6.53
2023-03-31T11:34:02.456Z,5.30
2023-03-31T11:36:44.525Z,8.38
2023-03-31T11:39:29.937Z,6.97
2023-03-31T11:42:02.214Z,4.72
2023-03-31T11:44:37.984Z,6.30
2023-03-31T11:47:10.677Z,5.55
2023-03-31T11:49:42.540Z,5.85
2023-03-31T11:52:16.574Z,5.75
2023-03-31T11:54:54.165Z,7.03
2023-03-31T11:57:28.596Z,7.75
2023-03-31T12:00:00.739Z,9.80
2023-03-31T12:02:37.625Z,5.78
2023-03-31T12:05:08.258Z,6.90
2023-03-31T12:07:41.789Z,7.18
2023-03-31T12:10:20.142Z,7.13
2023-03-31T12:12:54.026Z,6.88
2023-03-31T12:15:24.972Z,7.72
2023-03-31T12:17:58.718Z,7.70
2023-03-31T12:20:31.836Z,7.95
2023-03-31T12:23:01.221Z,6.97
2023-03-31T12:25:43.632Z,8.25
2023-03-31T12:28:12.941Z,9.43
2023-03-31T12:30:44.293Z,7.25
2023-03-31T12:33:19.559Z,8.18
2023-03-31T12:36:09.625Z,8.00
2023-03-31T12:38:58.150Z,11.02
2023-03-31T12:41:33.113Z,9.45
2023-03-31T12:44:17.835Z,9.48
2023-03-31T12:47:15.439Z,9.70
2023-03-31T12:49:56.238Z,7.93
2023-03-31T12:52:32.630Z,10.38
2023-03-31T12:55:25.107Z,7.90
2023-03-31T12:57:54.192Z,10.18
2023-03-31T13:00:25.687Z,7.00
2023-03-31T13:03:37.927Z,11.27
2023-03-31T13:06:06.723Z,8.83
2023-03-31T13:08:56.844Z,8.88
2023-03-31T13:11:38.470Z,9.25
2023-03-31T13:14:14.525Z,7.50
2023-03-31T13:16:42.448Z,10.88
2023-03-31T13:19:13.270Z,8.90
2023-03-31T13:21:54.948Z,8.85
2023-03-31T13:24:23.468Z,8.95
2023-03-31T13:26:54.097Z,9.65
2023-03-31T13:29:26.641Z,10.60
2023-03-31T13:32:11.098Z,10.05
2023-03-31T13:34:44.644Z,7.70
2023-03-31T13:37:22.764Z,5.63
2023-03-31T13:40:14.567Z,6.53
2023-03-31T13:43:17.114Z,5.50
2023-03-31T13:46:03.354Z,7.65
2023-03-31T13:48:41.590Z,7.72
2023-03-31T13:51:37.688Z,8.02
2023-03-31T13:54:40.207Z,8.60
2023-03-31T13:57:45.445Z,7.45
2023-03-31T14:00:27.089Z,7.00
2023-03-31T14:03:27.926Z,4.20
2023-03-31T14:06:00.747Z,6.60
2023-03-31T14:08:41.034Z,6.47
2023-03-31T14:11:25.073Z,7.85
2023-03-31T14:14:04.352Z,8.50
2023-03-31T14:16:36.411Z,4.95
2023-03-31T14:19:29.329Z,5.55
2023-03-31T14:22:05.904Z,7.28
2023-03-31T14:24:41.095Z,8.35
2023-03-31T14:27:24.094Z,5.93
2023-03-31T14:30:00.249Z,8.55
2023-03-31T14:32:36.906Z,8.52
2023-03-31T14:35:23.738Z,8.40
2023-03-31T14:37:54.151Z,7.05
2023-03-31T14:40:21.916Z,6.70
2023-03-31T14:42:50.734Z,8.07
2023-03-31T14:45:21.931Z,8.05
2023-03-31T14:47:57.802Z,8.82
2023-03-31T14:50:32.703Z,9.68
2023-03-31T14:53:01.370Z,9.00
2023-03-31T14:55:49.423Z,8.43
2023-03-31T14:58:28.062Z,8.20
2023-03-31T15:00:56.510Z,8.60
2023-03-31T15:03:27.532Z,8.45
2023-03-31T15:05:59.699Z,6.13
2023-03-31T15:08:29.652Z,8.77
2023-03-31T15:11:11.960Z,6.93
2023-03-31T15:13:56.820Z,5.97
2023-03-31T15:16:36.640Z,9.45
2023-03-31T15:19:13.270Z,25.13
2023-03-31T15:21:42.548Z,8.65
2023-03-31T15:24:13.315Z,8.23
2023-03-31T15:26:46.959Z,6.70
2023-03-31T15:29:22.218Z,6.53
2023-03-31T15:31:51.136Z,8.82
2023-03-31T15:34:24.805Z,8.68
2023-03-31T15:36:57.383Z,7.70
2023-03-31T15:41:54.571Z,7.07
2023-03-31T15:44:39.474Z,6.03
2023-03-31T15:47:17.283Z,6.40
2023-03-31T15:49:54.153Z,4.13
2023-03-31T15:52:27.974Z,4.43
2023-03-31T15:54:56.633Z,5.78
2023-03-31T15:57:32.565Z,3.65
2023-03-31T16:00:00.893Z,3.08
2023-03-31T16:02:41.532Z,4.38
2023-03-31T16:05:27.181Z,4.45
2023-03-31T16:07:58.418Z,6.78
2023-03-31T16:10:27.166Z,5.03
2023-03-31T16:12:59.937Z,5.70
2023-03-31T16:15:33.669Z,4.47
2023-03-31T16:18:04.522Z,3.78
2023-03-31T16:20:37.163Z,3.20
2023-03-31T16:23:15.786Z,5.88
2023-03-31T16:25:44.494Z,7.00
2023-03-31T16:28:16.699Z,9.43
2023-03-31T16:30:48.059Z,7.10
2023-03-31T16:33:18.974Z,5.00
2023-03-31T16:35:51.038Z,10.07
2023-03-31T16:38:21.685Z,9.23
2023-03-31T16:40:51.757Z,6.63
2023-03-31T16:43:21.364Z,5.55
2023-03-31T16:45:50.175Z,7.47
2023-03-31T16:48:20.722Z,7.03
2023-03-31T16:50:50.217Z,5.65
2023-03-31T16:53:22.199Z,6.75
2023-03-31T16:55:50.486Z,5.70
2023-03-31T16:58:18.882Z,8.23
2023-03-31T17:00:49.685Z,3.55
2023-03-31T17:03:17.712Z,5.25
2023-03-31T17:05:47.402Z,5.63
2023-03-31T17:08:16.832Z,3.55
2023-03-31T17:10:53.186Z,4.68
2023-03-31T17:13:21.658Z,5.10
2023-03-31T17:15:50.574Z,6.47
2023-03-31T17:18:20.229Z,6.65
2023-03-31T17:20:48.107Z,7.40
2023-03-31T17:23:15.961Z,4.82
2023-03-31T17:25:49.556Z,3.13
2023-03-31T17:28:19.961Z,3.33
2023-03-31T17:30:48.798Z,6.20
2023-03-31T17:33:17.161Z,6.25
2023-03-31T17:35:45.172Z,4.53
2023-03-31T17:38:14.418Z,5.43
2023-03-31T17:40:43.242Z,6.45
2023-03-31T17:43:13.967Z,7.00
2023-03-31T17:45:42.279Z,10.02
2023-03-31T17:48:10.718Z,9.48
2023-03-31T17:50:38.791Z,12.70
2023-03-31T17:53:09.072Z,14.63
2023-03-31T17:55:38.349Z,7.97
2023-03-31T17:58:08.511Z,4.43
2023-03-31T18:00:37.897Z,5.38
2023-03-31T18:03:05.777Z,5.20
2023-03-31T18:05:37.071Z,5.47
2023-03-31T18:08:05.163Z,5.03
2023-03-31T18:10:33.325Z,3.70
2023-03-31T18:13:01.607Z,5.45
2023-03-31T18:15:29.354Z,4.93
2023-03-31T18:17:58.692Z,5.47
2023-03-31T18:20:26.462Z,6.45
2023-03-31T18:22:54.170Z,4.25
2023-03-31T18:25:22.026Z,5.88
2023-03-31T18:27:50.632Z,5.57
2023-03-31T18:30:18.886Z,11.55
2023-03-31T18:32:46.664Z,9.23
2023-03-31T18:35:19.954Z,5.00
2023-03-31T18:37:50.329Z,6.22
2023-03-31T18:40:19.932Z,3.50
2023-03-31T18:42:48.369Z,4.38
2023-03-31T18:45:16.096Z,4.68
2023-03-31T18:47:43.899Z,6.30
2023-03-31T18:50:13.880Z,7.45
2023-03-31T18:52:43.004Z,7.57
2023-03-31T18:55:11.224Z,9.93
2023-03-31T18:57:38.973Z,9.32
2023-03-31T19:00:08.311Z,7.10
2023-03-31T19:02:36.870Z,7.55
2023-03-31T19:05:05.089Z,7.00
2023-03-31T19:07:33.500Z,5.97
2023-03-31T19:10:02.705Z,6.10
2023-03-31T19:12:30.612Z,8.48
2023-03-31T19:14:58.346Z,6.88
2023-03-31T19:17:26.303Z,7.55
2023-03-31T19:19:54.055Z,5.32
2023-03-31T19:22:21.928Z,5.75
2023-03-31T19:24:49.698Z,5.57
2023-03-31T19:27:18.765Z,8.88
2023-03-31T19:29:46.509Z,6.20
2023-03-31T19:32:14.299Z,6.72
2023-03-31T19:34:42.554Z,7.32
2023-03-31T19:37:11.069Z,7.60
2023-03-31T19:39:39.068Z,8.23
2023-03-31T19:42:06.882Z,6.93
2023-03-31T19:44:36.835Z,3.78
2023-03-31T19:47:05.004Z,4.25
2023-03-31T19:49:32.777Z,4.70
2023-03-31T19:52:00.785Z,6.70
2023-03-31T19:54:28.681Z,5.57
2023-03-31T19:56:56.496Z,6.47
2023-03-31T19:59:24.468Z,8.57
2023-03-31T20:01:53.694Z,11.80
2023-03-31T20:04:21.911Z,8.30
2023-03-31T20:06:49.742Z,6.07
2023-03-31T20:09:17.566Z,8.15
2023-03-31T20:11:45.561Z,9.52
2023-03-31T20:14:15.055Z,6.88
2023-03-31T20:16:44.493Z,7.78
2023-03-31T20:19:16.268Z,9.50
2023-03-31T20:21:45.678Z,7.90
2023-03-31T20:24:17.911Z,11.02
2023-03-31T20:29:14.307Z,8.57
2023-03-31T20:31:42.522Z,9.35
2023-03-31T20:34:14.176Z,7.25
2023-03-31T20:36:44.041Z,7.97
2023-03-31T20:39:13.905Z,8.27
2023-03-31T20:41:41.959Z,11.93
2023-03-31T20:44:13.507Z,8.85
2023-03-31T20:46:44.376Z,9.30
2023-03-31T20:49:13.993Z,6.95
2023-03-31T20:51:42.592Z,9.98
2023-03-31T20:54:10.786Z,6.97
2023-03-31T20:56:41.389Z,10.05
2023-03-31T20:59:12.077Z,9.50
2023-03-31T21:01:42.232Z,9.77
2023-03-31T21:04:13.071Z,11.32
2023-03-31T21:06:43.075Z,7.88
2023-03-31T21:09:12.695Z,7.53
2023-03-31T21:11:41.515Z,5.43
2023-03-31T21:14:12.324Z,9.27
2023-03-31T21:16:41.084Z,8.70
2023-03-31T21:19:08.916Z,8.00
2023-03-31T21:21:41.059Z,7.35
2023-03-31T21:24:10.176Z,6.93
2023-03-31T21:26:38.184Z,7.30
2023-03-31T21:29:06.024Z,6.90
2023-03-31T21:31:33.848Z,7.70
2023-03-31T21:34:02.628Z,10.88
2023-03-31T21:36:30.476Z,8.27
2023-03-31T21:38:59.912Z,12.57
2023-03-31T21:41:30.330Z,9.38
2023-03-31T21:44:00.582Z,14.43
2023-03-31T21:46:32.785Z,12.48
2023-03-31T21:49:01.089Z,9.45
2023-03-31T21:51:29.136Z,10.90
2023-03-31T21:53:57.370Z,9.57
2023-03-31T21:56:32.137Z,11.00
2023-03-31T21:59:04.228Z,12.90
2023-03-31T22:01:32.416Z,14.55
2023-03-31T22:04:00.313Z,19.83
2023-03-31T22:06:28.214Z,20.48
2023-03-31T22:08:56.027Z,21.23
2023-03-31T22:11:24.387Z,15.85
2023-03-31T22:13:53.577Z,15.90
2023-03-31T22:16:23.352Z,12.18
2023-03-31T22:18:52.671Z,12.68
2023-03-31T22:21:22.865Z,10.68
2023-03-31T22:23:52.398Z,11.23
2023-03-31T22:26:20.115Z,9.23
2023-03-31T22:28:47.913Z,8.75
2023-03-31T22:31:17.342Z,12.30
2023-03-31T22:33:45.315Z,10.88
2023-03-31T22:36:13.617Z,11.45
2023-03-31T22:38:41.919Z,10.48
2023-03-31T22:41:09.638Z,14.68
2023-03-31T22:43:37.418Z,11.88
2023-03-31T22:46:05.812Z,15.55
2023-03-31T22:48:35.646Z,17.35
2023-03-31T22:51:05.002Z,12.60
2023-03-31T22:53:33.131Z,13.23
2023-03-31T22:56:06.114Z,12.43
2023-03-31T22:58:33.926Z,14.02
2023-03-31T23:01:02.155Z,17.88
2023-03-31T23:03:30.186Z,11.35
2023-03-31T23:06:03.201Z,11.50
2023-03-31T23:08:31.085Z,10.32
2023-03-31T23:11:00.676Z,10.48
2023-03-31T23:13:29.569Z,9.50
2023-03-31T23:15:57.949Z,6.75
2023-03-31T23:18:25.818Z,7.13
2023-03-31T23:20:53.522Z,7.88
2023-03-31T23:23:22.673Z,7.72
2023-03-31T23:25:50.378Z,7.10
2023-03-31T23:28:18.461Z,6.43
2023-03-31T23:30:53.895Z,6.72
2023-03-31T23:33:21.577Z,11.07
2023-03-31T23:35:50.095Z,10.27
2023-03-31T23:38:18.161Z,8.63
2023-03-31T23:40:48.450Z,9.50
2023-03-31T23:43:17.408Z,10.45
2023-03-31T23:45:45.165Z,13.20
2023-03-31T23:48:12.948Z,12.60
2023-03-31T23:50:40.718Z,10.40
2023-03-31T23:53:08.432Z,10.80
2023-03-31T23:55:36.572Z,8.85
2023-03-31T23:58:06.243Z,8.52
